Terminal Aerodrome Forecast
Issued by NWS Cleveland, OH

Home | Current Version | Previous Version | Graphics & Text | Print | Product List | Glossary On
Versions: 1 2 3 4 5 6 7 8 9 10 11 12 13 14 15 16 17 18 19 20
000
FTUS41 KCLE 220500
TAFCAK
TAF
KCAK 220529Z 2206/2306 19006KT P6SM SKC
     FM220800 18007KT P6SM SCT040 SCT080
     FM221300 19009KT P6SM BKN040 OVC080 WS020/24045KT
      TEMPO 2213/2215 6SM -FZRA OVC020
     FM221500 20012KT 5SM -RA BR SCT008 BKN015 OVC025 WS020/24045KT
     FM221900 19014KT P6SM -SHRA BKN030 OVC050=

USA.gov is the U.S. government's official web portal to all federal, state and local government web resources and services.